Time;durP1;ratioP1;P1;durP2;ratioP2;P2;SDS_P1;SDS_P2;PMS_P1;PMS_P2;Temp;Humidity;BMP_temperature;BMP_pressure;BME280_temperature;BME280_humidity;BME280_pressure;Samples;Min_cycle;Max_cycle;Signal;HPM_P1;HPM_P2
2023/03/14 00:02:55;;;;;;;9.00;3.90;;;;;;;12.18;97.14;98519.23;213929;1289;138402;-88
2023/03/14 00:07:56;;;;;;;8.60;3.30;;;;;;;12.15;97.04;98519.63;213498;1293;139723;-90
2023/03/14 00:12:56;;;;;;;8.30;3.70;;;;;;;12.09;97.16;98516.92;214413;1289;138706;-87
2023/03/14 00:17:57;;;;;;;14.80;3.80;;;;;;;12.06;97.48;98514.35;213451;1293;139733;-88
2023/03/14 00:22:57;;;;;;;9.80;3.40;;;;;;;12.02;97.99;98511.28;213947;1295;98062;-86
2023/03/14 00:27:58;;;;;;;8.00;3.70;;;;;;;12.00;98.33;98497.17;213214;1292;139266;-87
2023/03/14 00:32:58;;;;;;;8.60;3.20;;;;;;;11.98;98.93;98497.75;213834;1292;138513;-88
2023/03/14 00:37:59;;;;;;;10.10;2.70;;;;;;;11.99;99.47;98488.77;213256;1294;138898;-88
2023/03/14 00:42:59;;;;;;;6.50;2.40;;;;;;;11.97;99.90;98481.80;213811;1289;139174;-88
2023/03/14 00:48:00;;;;;;;5.10;2.50;;;;;;;11.98;100.00;98480.60;213398;1289;139261;-86
2023/03/14 00:53:00;;;;;;;12.30;3.30;;;;;;;11.99;100.00;98477.89;213757;1289;106585;-86
2023/03/14 00:58:01;;;;;;;5.40;2.30;;;;;;;11.99;100.00;98478.21;213506;1289;138812;-87
2023/03/14 01:03:02;;;;;;;7.80;2.60;;;;;;;11.97;100.00;98482.04;213832;1289;138606;-88
2023/03/14 01:08:03;;;;;;;6.10;2.40;;;;;;;11.96;100.00;98484.20;213244;1288;138935;-88
2023/03/14 01:13:03;;;;;;;3.80;1.60;;;;;;;11.95;100.00;98470.84;213791;1291;138978;-89
2023/03/14 01:18:04;;;;;;;5.00;2.00;;;;;;;11.94;100.00;98460.46;213264;1294;139191;-87
2023/03/14 01:23:04;;;;;;;3.20;1.60;;;;;;;11.93;100.00;98438.77;214028;1293;97954;-88
2023/03/14 01:28:05;;;;;;;5.20;1.60;;;;;;;11.90;100.00;98420.56;213194;1288;138647;-88
2023/03/14 01:33:06;;;;;;;4.80;1.60;;;;;;;11.86;100.00;98400.36;214042;1289;139001;-88
2023/03/14 01:38:06;;;;;;;2.70;1.30;;;;;;;11.81;100.00;98385.92;213187;1289;139793;-88
2023/03/14 01:43:18;;;;;;;3.50;1.50;;;;;;;11.78;100.00;98374.27;213814;1291;138683;-85
2023/03/14 01:48:18;;;;;;;3.90;1.30;;;;;;;11.75;100.00;98360.73;213267;1291;140102;-87
2023/03/14 01:53:21;;;;;;;2.10;1.20;;;;;;;11.74;100.00;98353.60;213754;1289;106603;-87
2023/03/14 01:58:22;;;;;;;2.00;1.10;;;;;;;11.74;100.00;98326.74;213203;1289;230292;-89
2023/03/14 02:03:25;;;;;;;2.30;0.90;;;;;;;11.76;100.00;98341.18;213812;1289;139175;-86
2023/03/14 02:08:27;;;;;;;3.70;1.30;;;;;;;11.76;100.00;98340.77;213104;1289;140377;-87
2023/03/14 02:13:28;;;;;;;4.40;1.30;;;;;;;11.75;100.00;98355.45;213873;1293;138897;-87
2023/03/14 02:18:28;;;;;;;2.40;1.40;;;;;;;11.74;100.00;98356.50;213224;1289;139179;-86
2023/03/14 02:23:45;;;;;;;3.10;1.30;;;;;;;11.72;100.00;98357.48;214129;1289;97955;-87
2023/03/14 02:28:45;;;;;;;3.80;1.30;;;;;;;11.71;100.00;98354.14;213554;1292;139227;-87
2023/03/14 02:33:46;;;;;;;3.30;1.70;;;;;;;11.70;100.00;98356.13;213835;1288;139365;-88
2023/03/14 02:39:21;;;;;;;4.10;1.70;;;;;;;11.69;100.00;98351.27;213312;1294;139268;-87
2023/03/14 02:44:21;;;;;;;5.60;2.10;;;;;;;11.66;100.00;98350.82;213748;1291;138993;-88
2023/03/14 02:49:23;;;;;;;5.10;1.90;;;;;;;11.61;100.00;98355.96;213974;1292;139489;-88
2023/03/14 02:54:23;;;;;;;6.30;2.50;;;;;;;11.55;100.00;98354.69;213850;1289;138911;-90
2023/03/14 02:59:24;;;;;;;7.50;2.40;;;;;;;11.50;100.00;98360.16;213363;1291;138596;-89
2023/03/14 03:04:24;;;;;;;6.50;2.70;;;;;;;11.44;100.00;98368.23;213558;1289;140498;-88
2023/03/14 03:09:25;;;;;;;8.10;3.50;;;;;;;11.38;100.00;98371.17;213051;1289;139862;-87
2023/03/14 03:14:25;;;;;;;6.80;2.90;;;;;;;11.31;100.00;98360.90;213744;1290;139340;-88
2023/03/14 03:19:25;;;;;;;4.90;2.30;;;;;;;11.26;100.00;98350.48;213158;1289;139049;-88
2023/03/14 03:24:27;;;;;;;7.90;3.10;;;;;;;11.22;100.00;98344.45;213796;1289;139043;-89
2023/03/14 03:29:27;;;;;;;8.70;3.50;;;;;;;11.17;100.00;98332.70;213265;1289;138699;-89
2023/03/14 03:34:28;;;;;;;7.80;3.30;;;;;;;11.13;100.00;98325.10;213906;1289;138474;-88
2023/03/14 03:39:28;;;;;;;8.50;3.40;;;;;;;11.08;100.00;98307.14;213320;1292;138628;-88
2023/03/14 03:44:29;;;;;;;7.30;3.40;;;;;;;11.04;100.00;98295.73;213949;1291;139270;-88
2023/03/14 03:49:30;;;;;;;7.50;3.70;;;;;;;10.99;100.00;98294.86;213217;1290;139337;-88
2023/03/14 03:54:31;;;;;;;9.50;3.50;;;;;;;10.93;100.00;98287.69;213882;1288;139337;-88
2023/03/14 03:59:32;;;;;;;8.70;4.20;;;;;;;10.88;100.00;98274.99;213342;1288;139529;-88
2023/03/14 04:04:32;;;;;;;8.20;4.50;;;;;;;10.84;100.00;98257.10;213823;1289;138513;-89
2023/03/14 04:09:33;;;;;;;9.40;4.10;;;;;;;10.77;100.00;98257.17;213732;1293;253539;-87
2023/03/14 04:14:33;;;;;;;11.40;4.10;;;;;;;10.71;100.00;98257.56;213749;1289;138743;-88
2023/03/14 04:19:34;;;;;;;8.80;3.90;;;;;;;10.63;100.00;98261.86;213350;1294;139385;-89
2023/03/14 04:24:34;;;;;;;8.10;3.80;;;;;;;10.56;100.00;98257.07;213638;1289;138697;-88
2023/03/14 04:29:35;;;;;;;9.90;4.60;;;;;;;10.48;100.00;98254.96;213105;1289;139193;-85
2023/03/14 04:34:35;;;;;;;11.00;4.90;;;;;;;10.38;100.00;98261.73;213767;1289;97950;-85
2023/03/14 04:39:36;;;;;;;8.50;4.30;;;;;;;10.28;100.00;98271.70;213072;1288;139020;-87
2023/03/14 04:44:36;;;;;;;9.90;4.40;;;;;;;10.18;100.00;98246.72;213706;1291;139078;-88
2023/03/14 04:49:37;;;;;;;10.80;4.40;;;;;;;10.10;100.00;98242.80;213106;1289;139681;-87
2023/03/14 04:54:37;;;;;;;11.30;4.10;;;;;;;10.02;100.00;98243.04;213757;1288;139187;-87
2023/03/14 04:59:38;;;;;;;9.80;4.80;;;;;;;9.93;100.00;98231.15;213300;1289;139216;-86
2023/03/14 05:04:38;;;;;;;8.20;3.90;;;;;;;9.85;100.00;98220.15;213971;1288;98564;-87
2023/03/14 05:09:39;;;;;;;10.30;4.30;;;;;;;9.80;100.00;98233.69;213256;1288;138462;-88
2023/03/14 05:14:39;;;;;;;10.30;4.90;;;;;;;9.76;100.00;98229.46;213700;1289;138546;-87
2023/03/14 05:19:40;;;;;;;8.90;4.40;;;;;;;9.72;100.00;98243.20;213240;1289;139152;-88
2023/03/14 05:24:41;;;;;;;10.10;5.10;;;;;;;9.69;100.00;98259.74;213853;1294;138555;-87
2023/03/14 05:29:42;;;;;;;10.50;4.60;;;;;;;9.64;100.00;98264.77;213842;1288;138693;-86
2023/03/14 05:34:42;;;;;;;12.40;5.00;;;;;;;9.60;100.00;98252.16;213947;1289;97861;-87
2023/03/14 05:39:42;;;;;;;10.70;5.50;;;;;;;9.57;100.00;98253.23;213140;1294;138550;-87
2023/03/14 05:44:43;;;;;;;10.40;5.00;;;;;;;9.55;100.00;98254.05;213439;1289;139446;-88
2023/03/14 05:49:43;;;;;;;9.70;5.00;;;;;;;9.54;100.00;98248.89;212988;1288;139121;-88
2023/03/14 05:54:44;;;;;;;13.90;5.60;;;;;;;9.54;100.00;98244.66;214008;1291;138507;-86
2023/03/14 05:59:44;;;;;;;10.80;5.30;;;;;;;9.56;100.00;98249.73;213544;1289;139460;-88
2023/03/14 06:04:45;;;;;;;10.50;4.90;;;;;;;9.58;100.00;98248.19;214247;1289;97941;-87
2023/03/14 06:09:45;;;;;;;11.20;4.80;;;;;;;9.58;100.00;98243.09;213550;1291;138240;-87
2023/03/14 06:14:46;;;;;;;11.30;5.80;;;;;;;9.60;100.00;98245.55;213827;1291;139945;-88
2023/03/14 06:19:46;;;;;;;11.60;6.10;;;;;;;9.61;100.00;98247.83;213291;1288;138656;-89
2023/03/14 06:24:47;;;;;;;11.60;4.80;;;;;;;9.64;100.00;98244.16;213908;1289;138824;-88
2023/03/14 06:29:47;;;;;;;11.60;6.20;;;;;;;9.67;100.00;98249.11;213379;1289;139095;-86
2023/03/14 06:34:48;;;;;;;12.40;5.90;;;;;;;9.70;100.00;98252.49;213857;1291;98312;-87
2023/03/14 06:39:48;;;;;;;11.50;5.50;;;;;;;9.74;100.00;98254.46;213557;1288;138976;-90
2023/03/14 06:44:48;;;;;;;13.20;5.10;;;;;;;9.78;100.00;98245.34;214458;1289;138623;-89
2023/03/14 06:49:49;;;;;;;11.10;5.60;;;;;;;9.84;100.00;98238.77;213776;1288;139619;-90
2023/03/14 06:54:49;;;;;;;13.20;6.30;;;;;;;9.93;100.00;98242.53;213844;1289;138538;-88
2023/03/14 06:59:50;;;;;;;10.90;5.10;;;;;;;10.00;100.00;98234.91;213256;1288;138873;-90
2023/03/14 07:04:50;;;;;;;11.90;5.10;;;;;;;10.08;100.00;98245.59;213725;1289;97874;-89
2023/03/14 07:09:51;;;;;;;12.10;5.30;;;;;;;10.20;100.00;98232.14;213131;1291;138733;-91
2023/03/14 07:14:51;;;;;;;8.10;3.60;;;;;;;10.32;100.00;98231.77;213752;1288;139712;-88
2023/03/14 07:19:52;;;;;;;9.50;4.10;;;;;;;10.43;100.00;98231.91;213171;1289;139724;-87
2023/03/14 07:24:52;;;;;;;9.70;4.00;;;;;;;10.53;100.00;98234.28;214076;1291;138899;-88
2023/03/14 07:29:52;;;;;;;12.50;3.90;;;;;;;10.61;100.00;98226.69;213495;1288;139321;-88
2023/03/14 07:34:56;;;;;;;9.50;4.10;;;;;;;10.70;100.00;98219.54;214092;1288;98214;-88
2023/03/14 07:39:57;;;;;;;7.90;3.50;;;;;;;10.78;100.00;98213.23;213707;1288;138448;-90
2023/03/14 07:44:57;;;;;;;7.20;3.40;;;;;;;10.85;100.00;98220.90;214320;1288;139159;-89
2023/03/14 07:49:58;;;;;;;9.40;4.00;;;;;;;10.93;100.00;98220.06;213647;1289;139490;-90
2023/03/14 07:54:58;;;;;;;8.80;3.00;;;;;;;11.01;100.00;98227.72;214361;1288;138889;-88
2023/03/14 07:59:58;;;;;;;8.60;3.40;;;;;;;11.08;100.00;98231.64;213722;1288;139477;-90
2023/03/14 08:04:59;;;;;;;9.20;3.30;;;;;;;11.16;100.00;98235.27;214632;1289;97916;-88
2023/03/14 08:09:59;;;;;;;6.90;3.10;;;;;;;11.26;100.00;98229.34;213551;1289;139311;-88
2023/03/14 08:15:00;;;;;;;7.50;3.10;;;;;;;11.38;100.00;98230.52;214135;1291;138506;-89
2023/03/14 08:20:00;;;;;;;11.70;3.20;;;;;;;11.51;100.00;98233.90;213456;1288;139080;-88
2023/03/14 08:25:01;;;;;;;8.30;3.40;;;;;;;11.67;100.00;98238.86;213970;1292;138921;-90
2023/03/14 08:30:01;;;;;;;9.30;2.70;;;;;;;11.82;100.00;98250.23;213660;1289;139685;-89
2023/03/14 08:35:02;;;;;;;7.80;3.20;;;;;;;11.96;100.00;98254.62;214145;1290;98904;-90
2023/03/14 08:40:08;;;;;;;9.10;3.40;;;;;;;12.07;100.00;98251.70;213804;1288;139053;-89
2023/03/14 08:45:12;;;;;;;11.80;3.60;;;;;;;12.18;99.97;98243.17;213970;1288;138503;-92
2023/03/14 08:50:15;;;;;;;12.00;3.20;;;;;;;12.28;100.00;98243.73;213496;1288;139098;-89
2023/03/14 08:55:16;;;;;;;8.60;3.30;;;;;;;12.39;99.75;98237.63;214097;1288;138817;-89
2023/03/14 09:00:17;;;;;;;8.60;2.80;;;;;;;12.48;98.90;98234.35;213349;1289;139371;-87
2023/03/14 09:05:17;;;;;;;10.10;3.90;;;;;;;12.58;99.17;98241.69;214082;1294;99164;-91
2023/03/14 09:10:18;;;;;;;8.10;2.90;;;;;;;12.65;97.49;98250.77;213331;1288;139385;-90
2023/03/14 09:15:18;;;;;;;8.80;3.20;;;;;;;12.66;96.92;98259.71;213805;1288;139039;-88
2023/03/14 09:20:19;;;;;;;8.00;3.20;;;;;;;12.65;96.58;98256.20;213489;1288;139575;-90
2023/03/14 09:25:19;;;;;;;7.50;2.80;;;;;;;12.68;96.64;98238.42;214286;1288;138661;-92
2023/03/14 09:30:19;;;;;;;9.60;3.20;;;;;;;12.74;96.03;98244.39;213761;1289;139300;-89
2023/03/14 09:35:20;;;;;;;8.70;2.80;;;;;;;12.82;96.24;98247.13;214414;1288;97952;-88
2023/03/14 09:40:21;;;;;;;6.80;2.90;;;;;;;12.90;95.77;98242.59;213402;1291;138252;-86
2023/03/14 09:45:31;;;;;;;10.10;3.30;;;;;;;12.99;95.33;98247.29;213636;1289;138945;-90
2023/03/14 09:50:44;;;;;;;9.80;3.00;;;;;;;13.12;94.57;98245.90;213564;1290;139386;-90
2023/03/14 09:55:48;;;;;;;13.00;3.10;;;;;;;13.24;94.06;98238.25;213840;1288;138566;-90
2023/03/14 10:00:56;;;;;;;21.70;9.50;;;;;;;13.37;92.56;98237.71;213533;1289;139297;-88
2023/03/14 10:05:58;;;;;;;7.50;3.30;;;;;;;13.50;92.02;98228.25;213800;1288;138997;-87
2023/03/14 10:10:59;;;;;;;7.20;2.80;;;;;;;13.64;91.28;98233.76;214195;1288;98155;-91
2023/03/14 10:16:08;;;;;;;8.30;2.80;;;;;;;13.75;90.22;98235.36;213633;1288;138816;-89
2023/03/14 10:21:22;;;;;;;6.60;2.30;;;;;;;13.95;90.16;98233.67;213948;1293;138512;-91
2023/03/14 10:26:27;;;;;;;8.60;2.90;;;;;;;14.13;88.89;98235.91;213740;1288;139726;-91
2023/03/14 10:31:27;;;;;;;7.00;2.60;;;;;;;14.28;88.21;98245.89;214501;1288;140137;-90
2023/03/14 10:36:33;;;;;;;7.00;2.30;;;;;;;14.38;86.68;98244.36;213576;1288;142694;-90
2023/03/14 10:41:34;;;;;;;7.20;3.00;;;;;;;14.46;86.12;98235.61;214368;1288;111462;-89
2023/03/14 10:46:35;;;;;;;6.50;2.10;;;;;;;14.56;85.59;98239.58;213463;1289;138698;-92
2023/03/14 10:51:35;;;;;;;8.20;3.40;;;;;;;14.59;84.79;98247.34;214208;1292;139353;-89
2023/03/14 10:56:37;;;;;;;25.50;10.10;;;;;;;14.62;85.50;98248.86;213703;1292;139163;-90
2023/03/14 11:02:02;;;;;;;8.60;3.10;;;;;;;14.61;86.27;98245.99;214049;1291;139536;-91
2023/03/14 11:07:21;;;;;;;11.40;3.60;;;;;;;14.49;85.75;98238.63;213664;1289;139535;-92
2023/03/14 11:12:30;;;;;;;9.30;2.70;;;;;;;14.31;85.76;98242.36;214113;1289;138777;-89
2023/03/14 11:17:50;;;;;;;7.80;2.70;;;;;;;14.16;86.04;98242.90;214000;1291;138740;-90
2023/03/14 11:23:18;;;;;;;10.10;3.00;;;;;;;14.06;86.51;98245.73;214129;1292;103498;-89
2023/03/14 11:28:27;;;;;;;8.10;2.70;;;;;;;13.97;86.61;98241.44;213186;1289;138754;-88
2023/03/14 11:33:37;;;;;;;9.70;2.90;;;;;;;13.91;86.40;98237.47;213855;1293;138740;-88
2023/03/14 11:38:46;;;;;;;10.20;3.30;;;;;;;13.91;87.14;98232.65;213871;1291;138839;-91
2023/03/14 11:43:48;;;;;;;10.80;3.50;;;;;;;13.92;86.92;98236.63;214134;1294;139222;-87
2023/03/14 11:48:58;;;;;;;14.40;4.30;;;;;;;13.96;87.11;98244.16;213451;1293;139528;-88
2023/03/14 11:54:08;;;;;;;7.50;2.90;;;;;;;14.02;87.00;98235.14;214084;1291;139136;-88
2023/03/14 11:59:51;;;;;;;8.20;3.20;;;;;;;14.18;86.68;98229.98;214011;1289;138612;-90
2023/03/14 12:05:10;;;;;;;8.80;2.80;;;;;;;14.47;86.29;98215.40;214114;1291;97980;-89
2023/03/14 12:10:10;;;;;;;8.60;2.60;;;;;;;14.72;83.36;98211.46;213513;1289;139964;-91
2023/03/14 12:15:22;;;;;;;8.10;1.70;;;;;;;14.74;80.49;98209.16;214130;1289;138293;-88
2023/03/14 12:20:25;;;;;;;6.00;1.70;;;;;;;14.72;77.13;98210.74;213426;1289;138932;-87
2023/03/14 12:25:28;;;;;;;5.40;1.40;;;;;;;14.71;75.28;98201.80;214232;1289;138207;-87
2023/03/14 12:30:30;;;;;;;4.50;1.40;;;;;;;14.76;74.16;98200.95;213465;1288;139016;-87
2023/03/14 12:35:42;;;;;;;6.00;1.60;;;;;;;14.77;73.15;98200.17;214669;1289;98090;-89
2023/03/14 12:41:06;;;;;;;8.30;1.80;;;;;;;14.73;71.38;98205.86;213626;1288;138017;-85
2023/03/14 12:46:12;;;;;;;8.20;1.70;;;;;;;14.75;73.18;98202.23;213861;1291;139173;-85
2023/03/14 12:51:15;;;;;;;3.90;1.20;;;;;;;14.74;71.73;98202.14;214488;1289;137656;-90
2023/03/14 12:56:38;;;;;;;3.40;1.00;;;;;;;14.67;70.95;98208.98;213605;1292;139664;-87
2023/03/14 13:02:15;;;;;;;5.70;1.70;;;;;;;14.65;71.53;98207.80;213939;1288;137809;-87
2023/03/14 13:07:32;;;;;;;7.10;1.50;;;;;;;14.68;72.10;98204.80;213167;1292;138153;-87
2023/03/14 13:13:01;;;;;;;5.50;1.30;;;;;;;14.76;72.04;98209.46;213802;1288;139361;-86
2023/03/14 13:18:37;;;;;;;5.30;1.30;;;;;;;14.88;72.31;98203.53;213467;1293;137989;-88
2023/03/14 13:23:38;;;;;;;8.40;1.60;;;;;;;15.05;71.35;98197.73;213837;1291;99274;-87
2023/03/14 13:28:38;;;;;;;5.00;1.40;;;;;;;15.25;70.52;98201.14;213243;1291;138789;-86
2023/03/14 13:33:40;;;;;;;7.00;2.00;;;;;;;15.31;70.30;98200.34;213835;1291;137832;-87
2023/03/14 13:38:41;;;;;;;6.60;1.80;;;;;;;15.27;69.68;98197.35;213300;1293;138441;-86
2023/03/14 13:43:44;;;;;;;4.00;1.40;;;;;;;15.24;70.71;98196.66;213862;1289;137806;-87
2023/03/14 13:48:48;;;;;;;6.00;1.70;;;;;;;15.24;70.49;98197.44;213257;1288;138213;-87
2023/03/14 13:53:51;;;;;;;3.50;1.00;;;;;;;15.21;69.40;98201.13;214224;1293;138335;-89
2023/03/14 13:58:52;;;;;;;6.10;1.40;;;;;;;15.07;69.13;98191.30;213738;1289;138965;-89
2023/03/14 14:03:56;;;;;;;4.50;1.50;;;;;;;14.99;70.19;98193.88;214044;1292;137698;-86
2023/03/14 14:09:00;;;;;;;11.40;2.50;;;;;;;14.90;71.52;98191.46;213631;1294;138121;-89
2023/03/14 14:14:01;;;;;;;5.30;1.80;;;;;;;14.86;72.60;98188.27;214360;1291;137984;-90
2023/03/14 14:19:02;;;;;;;6.20;1.80;;;;;;;14.76;72.80;98184.15;213603;1293;139288;-87
2023/03/14 14:24:04;;;;;;;7.60;2.00;;;;;;;14.70;73.66;98184.91;213908;1289;138397;-87
2023/03/14 14:29:05;;;;;;;7.00;1.80;;;;;;;14.63;72.86;98187.97;213613;1291;137873;-89
2023/03/14 14:34:19;;;;;;;5.30;2.10;;;;;;;14.48;72.15;98181.44;214423;1291;139347;-90
2023/03/14 14:39:28;;;;;;;3.70;1.90;;;;;;;14.37;72.37;98188.13;213584;1292;138120;-87
2023/03/14 14:44:36;;;;;;;5.90;2.40;;;;;;;14.28;72.56;98187.23;214477;1291;139303;-88
2023/03/14 14:49:37;;;;;;;6.60;2.00;;;;;;;14.19;72.75;98189.54;213848;1291;138959;-91
2023/03/14 14:54:59;;;;;;;7.40;1.70;;;;;;;14.08;72.95;98195.72;214372;1289;137809;-88
2023/03/14 15:00:12;;;;;;;6.40;1.60;;;;;;;13.93;74.29;98187.00;213637;1292;138687;-88
2023/03/14 15:05:21;;;;;;;4.90;1.60;;;;;;;13.84;74.87;98197.75;214117;1291;111232;-89
2023/03/14 15:10:25;;;;;;;4.60;1.20;;;;;;;13.77;75.47;98196.98;213524;1293;140297;-86
2023/03/14 15:15:25;;;;;;;7.10;2.90;;;;;;;13.70;75.82;98192.62;214065;1291;138651;-90
2023/03/14 15:20:26;;;;;;;8.30;2.50;;;;;;;13.60;76.91;98184.38;213485;1288;138903;-90
2023/03/14 15:25:55;;;;;;;;;;;;;;;;;;;;;
2023/03/14 15:30:58;;;;;;;8.00;2.70;;;;;;;13.42;78.30;98169.79;214200;1291;139777;-87
2023/03/14 15:36:00;;;;;;;11.90;4.30;;;;;;;13.37;79.13;98175.73;215036;1288;138810;-91
2023/03/14 15:41:48;;;;;;;;;;;;;;;;;;;;;
2023/03/14 15:46:50;;;;;;;8.50;3.10;;;;;;;13.34;79.85;98171.17;215102;1289;138413;-91
2023/03/14 15:51:50;;;;;;;10.90;3.60;;;;;;;13.29;80.20;98179.34;215678;1289;138932;-89
2023/03/14 15:56:51;;;;;;;10.90;4.20;;;;;;;13.23;80.34;98174.98;215037;1289;139985;-89
2023/03/14 16:02:10;;;;;;;9.80;3.60;;;;;;;13.17;80.70;98172.45;216681;1288;139600;-92
2023/03/14 16:07:11;;;;;;;14.90;6.10;;;;;;;13.12;81.23;98173.02;215574;1291;138891;-91
2023/03/14 16:12:11;;;;;;;12.90;5.00;;;;;;;13.09;81.49;98175.58;215156;1289;268829;-88
2023/03/14 16:17:11;;;;;;;12.70;5.00;;;;;;;13.05;81.77;98172.61;214993;1292;139437;-88
2023/03/14 16:22:12;;;;;;;12.90;4.70;;;;;;;13.01;81.85;98170.88;215484;1289;139145;-86
2023/03/14 16:27:13;;;;;;;12.70;5.10;;;;;;;12.97;82.21;98171.56;215233;1293;138891;-87
2023/03/14 16:32:14;;;;;;;11.60;4.70;;;;;;;12.92;82.18;98176.65;215452;1293;139357;-86
2023/03/14 16:37:14;;;;;;;13.30;4.80;;;;;;;12.88;82.57;98177.52;214783;1290;139367;-87
2023/03/14 16:42:16;;;;;;;12.20;4.80;;;;;;;12.84;82.63;98173.33;215317;1294;139470;-90
2023/03/14 16:47:16;;;;;;;11.60;4.40;;;;;;;12.75;82.67;98184.29;215659;1292;139679;-89
2023/03/14 16:52:17;;;;;;;11.80;4.50;;;;;;;12.66;83.08;98184.97;215659;1289;139326;-88
2023/03/14 16:57:17;;;;;;;10.30;4.80;;;;;;;12.59;83.39;98186.93;214763;1289;139239;-86
2023/03/14 17:02:18;;;;;;;10.30;4.50;;;;;;;12.50;84.06;98197.78;215390;1290;139709;-87
2023/03/14 17:07:18;;;;;;;11.00;5.00;;;;;;;12.42;84.74;98201.98;215490;1292;140693;-90
2023/03/14 17:12:19;;;;;;;11.20;4.40;;;;;;;12.35;85.45;98211.06;215366;1289;139207;-90
2023/03/14 17:17:19;;;;;;;13.60;5.40;;;;;;;12.26;86.14;98223.05;215014;1290;139051;-90
2023/03/14 17:22:20;;;;;;;14.70;5.40;;;;;;;12.18;86.25;98234.83;215526;1294;139233;-90
2023/03/14 17:27:20;;;;;;;12.80;5.40;;;;;;;12.15;86.80;98232.70;214837;1289;139306;-90
2023/03/14 17:32:21;;;;;;;14.20;5.40;;;;;;;12.11;86.70;98238.80;215612;1289;138867;-89
2023/03/14 17:37:21;;;;;;;9.40;3.90;;;;;;;12.06;86.47;98242.59;214948;1289;140057;-87
2023/03/14 17:42:21;;;;;;;15.00;4.60;;;;;;;12.03;86.73;98244.02;215512;1289;139376;-87
2023/03/14 17:47:22;;;;;;;12.70;5.10;;;;;;;11.99;86.98;98247.29;214948;1288;139881;-87
2023/03/14 17:52:22;;;;;;;14.70;4.50;;;;;;;11.93;87.37;98244.70;215390;1289;139548;-88
2023/03/14 17:57:23;;;;;;;11.10;4.10;;;;;;;11.89;87.95;98250.12;215019;1289;139491;-89
2023/03/14 18:02:24;;;;;;;10.90;3.80;;;;;;;11.84;88.68;98246.95;215672;1290;138651;-86
2023/03/14 18:07:25;;;;;;;12.90;4.70;;;;;;;11.79;89.40;98245.67;215140;1289;139661;-88
2023/03/14 18:12:27;;;;;;;15.50;5.70;;;;;;;11.74;89.97;98241.55;215659;1289;139529;-88
2023/03/14 18:17:28;;;;;;;13.20;4.90;;;;;;;11.67;90.45;98237.58;215141;1289;139235;-89
2023/03/14 18:22:47;;;;;;;10.30;4.60;;;;;;;11.59;91.31;98246.99;216028;1292;138612;-88
2023/03/14 18:27:50;;;;;;;12.60;4.60;;;;;;;11.52;92.14;98254.04;215110;1288;140371;-88
2023/03/14 18:32:50;;;;;;;11.20;4.60;;;;;;;11.45;92.62;98256.89;215325;1288;139574;-86
2023/03/14 18:37:51;;;;;;;11.90;5.10;;;;;;;11.39;93.10;98253.20;214597;1289;139645;-89
2023/03/14 18:42:51;;;;;;;11.70;4.70;;;;;;;11.34;93.47;98253.92;215548;1289;138855;-86
2023/03/14 18:47:52;;;;;;;9.40;4.20;;;;;;;11.28;93.56;98250.52;214744;1289;139294;-87
2023/03/14 18:52:52;;;;;;;9.40;3.70;;;;;;;11.25;93.43;98257.61;215337;1293;98039;-87
2023/03/14 18:57:53;;;;;;;8.90;3.50;;;;;;;11.20;93.54;98271.73;214525;1293;138787;-89
2023/03/14 19:02:53;;;;;;;8.60;3.10;;;;;;;11.16;93.88;98276.19;215295;1288;139019;-87
2023/03/14 19:07:56;;;;;;;10.10;3.70;;;;;;;11.12;93.97;98272.80;214666;1289;139556;-89
2023/03/14 19:12:57;;;;;;;10.30;4.00;;;;;;;11.08;94.31;98277.54;215152;1291;138697;-88
2023/03/14 19:17:57;;;;;;;8.30;3.60;;;;;;;11.06;94.41;98290.27;214371;1288;139554;-87
2023/03/14 19:22:58;;;;;;;9.60;4.20;;;;;;;11.02;94.64;98357.98;215288;1292;97947;-90
2023/03/14 19:27:58;;;;;;;8.30;2.00;;;;;;;10.70;89.79;98461.38;214543;1289;138524;-85
2023/03/14 19:32:58;;;;;;;3.10;1.60;;;;;;;9.89;90.02;98508.23;215463;1291;138869;-86
2023/03/14 19:37:59;;;;;;;5.00;1.60;;;;;;;9.09;90.24;98520.98;214649;1288;139032;-86
2023/03/14 19:42:59;;;;;;;10.80;3.40;;;;;;;8.40;90.34;98552.99;215248;1289;138098;-88
2023/03/14 19:48:05;;;;;;;6.30;1.30;;;;;;;7.83;91.64;98593.33;216174;1291;139544;-87
2023/03/14 19:53:07;;;;;;;4.70;1.50;;;;;;;7.35;91.92;98644.15;214948;1289;106909;-87
2023/03/14 19:58:07;;;;;;;6.10;2.10;;;;;;;6.87;92.04;98674.73;214541;1289;138426;-88
2023/03/14 20:03:07;;;;;;;6.20;2.80;;;;;;;6.43;92.35;98720.06;215111;1288;138178;-89
2023/03/14 20:08:08;;;;;;;5.10;2.20;;;;;;;6.04;92.80;98755.06;214953;1288;138503;-90
2023/03/14 20:13:08;;;;;;;7.60;4.00;;;;;;;5.64;93.27;98790.86;215578;1291;138168;-88
2023/03/14 20:18:09;;;;;;;3.50;1.70;;;;;;;5.34;94.36;98812.38;214997;1289;138435;-88
2023/03/14 20:23:09;;;;;;;5.50;2.50;;;;;;;5.10;94.77;98830.14;215663;1288;97906;-88
2023/03/14 20:28:10;;;;;;;7.20;3.50;;;;;;;4.89;95.14;98848.75;215283;1288;138369;-87
2023/03/14 20:33:12;;;;;;;9.20;4.10;;;;;;;4.69;95.86;98872.25;215774;1291;139430;-88
2023/03/14 20:38:12;;;;;;;10.60;4.80;;;;;;;4.47;96.05;98888.14;214882;1291;138890;-90
2023/03/14 20:43:13;;;;;;;6.60;2.00;;;;;;;4.27;97.21;98903.34;215111;1288;138546;-88
2023/03/14 20:48:14;;;;;;;18.20;8.30;;;;;;;4.13;97.34;98922.52;214580;1288;138578;-88
2023/03/14 20:53:14;;;;;;;9.00;3.60;;;;;;;3.97;97.80;98942.16;214978;1288;97951;-88
2023/03/14 20:58:15;;;;;;;13.80;6.70;;;;;;;3.81;98.30;98959.83;214472;1288;138576;-89
2023/03/14 21:03:17;;;;;;;9.70;4.00;;;;;;;3.65;98.49;98974.36;214908;1289;139393;-88
2023/03/14 21:08:21;;;;;;;10.90;5.00;;;;;;;3.50;99.20;98989.73;214469;1294;139238;-89
2023/03/14 21:13:22;;;;;;;9.70;3.60;;;;;;;3.42;99.75;99010.35;214920;1288;138298;-88
2023/03/14 21:18:23;;;;;;;20.50;8.40;;;;;;;3.41;100.00;99042.73;214788;1291;138550;-89
2023/03/14 21:23:25;;;;;;;9.00;3.30;;;;;;;3.36;100.00;99063.32;215251;1288;97873;-89
2023/03/14 21:28:26;;;;;;;6.10;2.50;;;;;;;3.30;100.00;99083.23;214580;1289;138372;-89
2023/03/14 21:33:26;;;;;;;5.40;1.70;;;;;;;3.27;100.00;99102.84;215083;1291;138119;-90
2023/03/14 21:38:27;;;;;;;4.90;1.70;;;;;;;3.27;100.00;99118.61;214450;1289;139111;-89
2023/03/14 21:43:28;;;;;;;5.70;1.80;;;;;;;3.26;100.00;99135.60;215029;1288;138553;-89
2023/03/14 21:48:28;;;;;;;4.20;1.80;;;;;;;3.20;100.00;99145.90;214364;1288;139602;-90
2023/03/14 21:53:29;;;;;;;5.60;1.60;;;;;;;3.18;100.00;99162.87;215190;1291;97960;-90
2023/03/14 21:58:30;;;;;;;4.70;2.20;;;;;;;3.20;100.00;99168.17;214494;1291;139317;-88
2023/03/14 22:03:32;;;;;;;7.40;3.20;;;;;;;3.14;100.00;99185.92;214652;1291;138395;-88
2023/03/14 22:08:33;;;;;;;6.80;2.90;;;;;;;3.06;100.00;99196.94;214641;1288;138755;-86
2023/03/14 22:13:33;;;;;;;7.30;3.00;;;;;;;3.03;100.00;99201.01;214795;1289;138747;-87
2023/03/14 22:18:34;;;;;;;10.60;3.80;;;;;;;3.04;100.00;99203.27;214639;1288;138454;-87
2023/03/14 22:23:34;;;;;;;14.00;4.60;;;;;;;3.03;100.00;99213.27;215042;1288;98475;-88
2023/03/14 22:28:35;;;;;;;10.30;4.60;;;;;;;3.01;100.00;99229.75;214954;1289;138571;-88
2023/03/14 22:33:35;;;;;;;13.00;4.80;;;;;;;2.98;100.00;99231.23;215734;1289;138525;-87
2023/03/14 22:38:36;;;;;;;11.80;4.60;;;;;;;2.98;100.00;99240.02;215246;1288;139402;-88
2023/03/14 22:43:36;;;;;;;10.80;4.80;;;;;;;2.94;100.00;99238.15;215288;1289;139069;-87
2023/03/14 22:48:36;;;;;;;13.70;5.60;;;;;;;2.88;100.00;99242.98;214728;1288;139726;-86
2023/03/14 22:53:37;;;;;;;15.90;5.00;;;;;;;2.84;100.00;99251.13;215059;1288;98407;-87
2023/03/14 22:58:38;;;;;;;17.40;5.40;;;;;;;2.82;100.00;99254.70;214757;1291;138951;-84
2023/03/14 23:03:38;;;;;;;17.00;5.40;;;;;;;2.77;100.00;99255.70;214943;1288;140667;-86
2023/03/14 23:08:40;;;;;;;14.10;4.90;;;;;;;2.73;100.00;99265.39;214604;1288;138956;-85
2023/03/14 23:13:41;;;;;;;12.70;5.30;;;;;;;2.68;100.00;99279.71;214848;1288;138524;-85